sensor_id;sensor_type;location;lat;lon;timestamp;P1;durP1;ratioP1;P2;durP2;ratioP2
9914;SDS011;4996;48.746;9.174;2022-11-14T00:02:16;11.70;;;7.83;;
9914;SDS011;4996;48.746;9.174;2022-11-14T00:04:45;11.50;;;7.30;;
9914;SDS011;4996;48.746;9.174;2022-11-14T00:07:11;11.25;;;7.55;;
9914;SDS011;4996;48.746;9.174;2022-11-14T00:09:37;10.53;;;7.80;;
9914;SDS011;4996;48.746;9.174;2022-11-14T00:12:04;12.25;;;7.97;;
9914;SDS011;4996;48.746;9.174;2022-11-14T00:14:30;12.23;;;7.20;;
9914;SDS011;4996;48.746;9.174;2022-11-14T00:16:55;11.67;;;7.83;;
9914;SDS011;4996;48.746;9.174;2022-11-14T00:19:21;11.67;;;8.03;;
9914;SDS011;4996;48.746;9.174;2022-11-14T00:21:47;15.37;;;7.67;;
9914;SDS011;4996;48.746;9.174;2022-11-14T00:24:12;15.27;;;8.63;;
9914;SDS011;4996;48.746;9.174;2022-11-14T00:26:37;12.70;;;7.33;;
9914;SDS011;4996;48.746;9.174;2022-11-14T00:29:03;9.93;;;6.80;;
9914;SDS011;4996;48.746;9.174;2022-11-14T00:31:29;13.23;;;8.50;;
9914;SDS011;4996;48.746;9.174;2022-11-14T00:33:54;11.30;;;6.70;;
9914;SDS011;4996;48.746;9.174;2022-11-14T00:36:20;12.83;;;7.03;;
9914;SDS011;4996;48.746;9.174;2022-11-14T00:38:45;13.10;;;7.53;;
9914;SDS011;4996;48.746;9.174;2022-11-14T00:41:11;14.40;;;8.10;;
9914;SDS011;4996;48.746;9.174;2022-11-14T00:43:36;11.57;;;6.93;;
9914;SDS011;4996;48.746;9.174;2022-11-14T00:46:02;13.17;;;8.43;;
9914;SDS011;4996;48.746;9.174;2022-11-14T00:48:27;14.83;;;7.40;;
9914;SDS011;4996;48.746;9.174;2022-11-14T00:50:53;12.13;;;7.50;;
9914;SDS011;4996;48.746;9.174;2022-11-14T00:53:18;11.80;;;7.50;;
9914;SDS011;4996;48.746;9.174;2022-11-14T00:55:44;15.43;;;7.87;;
9914;SDS011;4996;48.746;9.174;2022-11-14T00:58:09;11.30;;;7.83;;
9914;SDS011;4996;48.746;9.174;2022-11-14T01:00:35;13.90;;;7.90;;
9914;SDS011;4996;48.746;9.174;2022-11-14T01:03:01;9.57;;;6.53;;
9914;SDS011;4996;48.746;9.174;2022-11-14T01:05:26;11.20;;;6.43;;
9914;SDS011;4996;48.746;9.174;2022-11-14T01:07:53;11.70;;;7.23;;
9914;SDS011;4996;48.746;9.174;2022-11-14T01:10:19;13.53;;;8.00;;
9914;SDS011;4996;48.746;9.174;2022-11-14T01:12:45;9.65;;;6.88;;
9914;SDS011;4996;48.746;9.174;2022-11-14T01:15:10;14.20;;;8.27;;
9914;SDS011;4996;48.746;9.174;2022-11-14T01:17:36;13.67;;;7.60;;
9914;SDS011;4996;48.746;9.174;2022-11-14T01:20:02;12.23;;;7.20;;
9914;SDS011;4996;48.746;9.174;2022-11-14T01:22:28;11.90;;;7.57;;
9914;SDS011;4996;48.746;9.174;2022-11-14T01:24:54;12.50;;;6.68;;
9914;SDS011;4996;48.746;9.174;2022-11-14T01:27:22;10.65;;;6.80;;
9914;SDS011;4996;48.746;9.174;2022-11-14T01:29:48;11.15;;;6.85;;
9914;SDS011;4996;48.746;9.174;2022-11-14T01:32:14;14.37;;;7.43;;
9914;SDS011;4996;48.746;9.174;2022-11-14T01:34:39;11.20;;;7.30;;
9914;SDS011;4996;48.746;9.174;2022-11-14T01:37:05;9.17;;;6.60;;
9914;SDS011;4996;48.746;9.174;2022-11-14T01:39:30;10.77;;;6.77;;
9914;SDS011;4996;48.746;9.174;2022-11-14T01:41:56;11.03;;;7.57;;
9914;SDS011;4996;48.746;9.174;2022-11-14T01:47:12;10.88;;;6.97;;
9914;SDS011;4996;48.746;9.174;2022-11-14T01:49:44;10.00;;;7.10;;
9914;SDS011;4996;48.746;9.174;2022-11-14T01:54:56;15.20;;;7.88;;
9914;SDS011;4996;48.746;9.174;2022-11-14T01:57:24;12.25;;;7.40;;
9914;SDS011;4996;48.746;9.174;2022-11-14T01:59:58;14.70;;;7.40;;
9914;SDS011;4996;48.746;9.174;2022-11-14T02:02:28;10.57;;;7.25;;
9914;SDS011;4996;48.746;9.174;2022-11-14T02:04:55;11.70;;;7.57;;
9914;SDS011;4996;48.746;9.174;2022-11-14T02:07:25;13.40;;;7.53;;
9914;SDS011;4996;48.746;9.174;2022-11-14T02:09:53;12.98;;;8.15;;
9914;SDS011;4996;48.746;9.174;2022-11-14T02:12:19;17.40;;;8.83;;
9914;SDS011;4996;48.746;9.174;2022-11-14T02:14:47;14.68;;;8.93;;
9914;SDS011;4996;48.746;9.174;2022-11-14T02:17:16;14.18;;;8.50;;
9914;SDS011;4996;48.746;9.174;2022-11-14T02:19:50;15.45;;;8.00;;
9914;SDS011;4996;48.746;9.174;2022-11-14T02:22:17;12.80;;;8.18;;
9914;SDS011;4996;48.746;9.174;2022-11-14T02:24:43;12.23;;;7.90;;
9914;SDS011;4996;48.746;9.174;2022-11-14T02:27:10;12.88;;;8.43;;
9914;SDS011;4996;48.746;9.174;2022-11-14T02:29:38;14.43;;;7.78;;
9914;SDS011;4996;48.746;9.174;2022-11-14T02:32:03;11.90;;;6.60;;
9914;SDS011;4996;48.746;9.174;2022-11-14T02:34:29;14.17;;;7.77;;
9914;SDS011;4996;48.746;9.174;2022-11-14T02:36:55;15.10;;;8.47;;
9914;SDS011;4996;48.746;9.174;2022-11-14T02:39:21;12.70;;;7.30;;
9914;SDS011;4996;48.746;9.174;2022-11-14T02:41:48;11.13;;;7.43;;
9914;SDS011;4996;48.746;9.174;2022-11-14T02:44:14;12.13;;;8.05;;
9914;SDS011;4996;48.746;9.174;2022-11-14T02:46:40;10.40;;;7.03;;
9914;SDS011;4996;48.746;9.174;2022-11-14T02:49:05;13.93;;;7.50;;
9914;SDS011;4996;48.746;9.174;2022-11-14T02:51:31;10.33;;;6.53;;
9914;SDS011;4996;48.746;9.174;2022-11-14T02:53:56;12.07;;;7.40;;
9914;SDS011;4996;48.746;9.174;2022-11-14T02:56:22;12.03;;;6.77;;
9914;SDS011;4996;48.746;9.174;2022-11-14T02:58:47;12.23;;;7.70;;
9914;SDS011;4996;48.746;9.174;2022-11-14T03:01:13;14.70;;;7.87;;
9914;SDS011;4996;48.746;9.174;2022-11-14T03:03:38;14.43;;;8.00;;
9914;SDS011;4996;48.746;9.174;2022-11-14T03:06:04;12.03;;;6.70;;
9914;SDS011;4996;48.746;9.174;2022-11-14T03:08:29;9.70;;;6.63;;
9914;SDS011;4996;48.746;9.174;2022-11-14T03:10:55;9.10;;;6.27;;
9914;SDS011;4996;48.746;9.174;2022-11-14T03:13:27;9.23;;;5.88;;
9914;SDS011;4996;48.746;9.174;2022-11-14T03:15:54;12.35;;;7.35;;
9914;SDS011;4996;48.746;9.174;2022-11-14T03:18:20;12.05;;;6.97;;
9914;SDS011;4996;48.746;9.174;2022-11-14T03:20:45;10.27;;;6.43;;
9914;SDS011;4996;48.746;9.174;2022-11-14T03:23:11;23.50;;;7.57;;
9914;SDS011;4996;48.746;9.174;2022-11-14T03:25:36;23.53;;;6.87;;
9914;SDS011;4996;48.746;9.174;2022-11-14T03:28:02;10.70;;;6.77;;
9914;SDS011;4996;48.746;9.174;2022-11-14T03:30:28;19.13;;;6.90;;
9914;SDS011;4996;48.746;9.174;2022-11-14T03:32:54;10.20;;;6.57;;
9914;SDS011;4996;48.746;9.174;2022-11-14T03:35:20;10.88;;;6.47;;
9914;SDS011;4996;48.746;9.174;2022-11-14T03:37:46;13.30;;;6.20;;
9914;SDS011;4996;48.746;9.174;2022-11-14T03:40:12;15.60;;;6.10;;
9914;SDS011;4996;48.746;9.174;2022-11-14T03:42:37;12.30;;;5.50;;
9914;SDS011;4996;48.746;9.174;2022-11-14T03:45:03;7.57;;;6.07;;
9914;SDS011;4996;48.746;9.174;2022-11-14T03:47:28;8.37;;;5.40;;
9914;SDS011;4996;48.746;9.174;2022-11-14T03:49:54;8.67;;;5.50;;
9914;SDS011;4996;48.746;9.174;2022-11-14T03:52:20;8.43;;;6.03;;
9914;SDS011;4996;48.746;9.174;2022-11-14T03:54:45;16.73;;;6.33;;
9914;SDS011;4996;48.746;9.174;2022-11-14T03:57:11;8.60;;;5.80;;
9914;SDS011;4996;48.746;9.174;2022-11-14T03:59:36;11.40;;;6.03;;
9914;SDS011;4996;48.746;9.174;2022-11-14T04:02:02;8.03;;;5.40;;
9914;SDS011;4996;48.746;9.174;2022-11-14T04:04:27;9.80;;;6.50;;
9914;SDS011;4996;48.746;9.174;2022-11-14T04:06:53;9.73;;;6.70;;
9914;SDS011;4996;48.746;9.174;2022-11-14T04:09:18;12.40;;;7.23;;
9914;SDS011;4996;48.746;9.174;2022-11-14T04:11:44;12.37;;;7.67;;
9914;SDS011;4996;48.746;9.174;2022-11-14T04:14:09;11.77;;;8.07;;
9914;SDS011;4996;48.746;9.174;2022-11-14T04:16:35;11.20;;;7.17;;
9914;SDS011;4996;48.746;9.174;2022-11-14T04:19:00;12.60;;;7.47;;
9914;SDS011;4996;48.746;9.174;2022-11-14T04:21:26;13.73;;;9.33;;
9914;SDS011;4996;48.746;9.174;2022-11-14T04:23:51;11.93;;;8.50;;
9914;SDS011;4996;48.746;9.174;2022-11-14T04:26:17;12.10;;;7.90;;
9914;SDS011;4996;48.746;9.174;2022-11-14T04:28:42;12.60;;;8.70;;
9914;SDS011;4996;48.746;9.174;2022-11-14T04:31:08;14.40;;;8.10;;
9914;SDS011;4996;48.746;9.174;2022-11-14T04:33:34;12.03;;;8.40;;
9914;SDS011;4996;48.746;9.174;2022-11-14T04:35:59;15.53;;;8.70;;
9914;SDS011;4996;48.746;9.174;2022-11-14T04:38:25;16.00;;;7.73;;
9914;SDS011;4996;48.746;9.174;2022-11-14T04:40:50;10.40;;;6.90;;
9914;SDS011;4996;48.746;9.174;2022-11-14T04:43:17;12.65;;;8.20;;
9914;SDS011;4996;48.746;9.174;2022-11-14T04:45:43;13.98;;;8.45;;
9914;SDS011;4996;48.746;9.174;2022-11-14T04:48:09;13.57;;;8.80;;
9914;SDS011;4996;48.746;9.174;2022-11-14T04:50:35;12.40;;;7.10;;
9914;SDS011;4996;48.746;9.174;2022-11-14T04:53:00;12.90;;;8.00;;
9914;SDS011;4996;48.746;9.174;2022-11-14T04:55:26;15.07;;;6.53;;
9914;SDS011;4996;48.746;9.174;2022-11-14T04:57:53;14.87;;;7.83;;
9914;SDS011;4996;48.746;9.174;2022-11-14T05:00:20;11.23;;;7.20;;
9914;SDS011;4996;48.746;9.174;2022-11-14T05:02:45;13.10;;;7.87;;
9914;SDS011;4996;48.746;9.174;2022-11-14T05:05:11;9.93;;;6.87;;
9914;SDS011;4996;48.746;9.174;2022-11-14T05:07:36;10.47;;;7.17;;
9914;SDS011;4996;48.746;9.174;2022-11-14T05:10:02;12.10;;;7.27;;
9914;SDS011;4996;48.746;9.174;2022-11-14T05:12:29;11.73;;;7.18;;
9914;SDS011;4996;48.746;9.174;2022-11-14T05:14:54;10.90;;;7.50;;
9914;SDS011;4996;48.746;9.174;2022-11-14T05:17:20;9.93;;;6.77;;
9914;SDS011;4996;48.746;9.174;2022-11-14T05:19:45;11.47;;;6.40;;
9914;SDS011;4996;48.746;9.174;2022-11-14T05:22:11;10.80;;;6.50;;
9914;SDS011;4996;48.746;9.174;2022-11-14T05:24:36;12.57;;;7.20;;
9914;SDS011;4996;48.746;9.174;2022-11-14T05:27:02;11.40;;;7.97;;
9914;SDS011;4996;48.746;9.174;2022-11-14T05:29:27;10.90;;;7.90;;
9914;SDS011;4996;48.746;9.174;2022-11-14T05:31:53;11.87;;;7.83;;
9914;SDS011;4996;48.746;9.174;2022-11-14T05:34:19;12.90;;;8.73;;
9914;SDS011;4996;48.746;9.174;2022-11-14T05:36:44;12.37;;;8.40;;
9914;SDS011;4996;48.746;9.174;2022-11-14T05:39:10;15.47;;;8.90;;
9914;SDS011;4996;48.746;9.174;2022-11-14T05:41:35;13.20;;;8.20;;
9914;SDS011;4996;48.746;9.174;2022-11-14T05:44:02;11.00;;;7.63;;
9914;SDS011;4996;48.746;9.174;2022-11-14T05:46:28;13.52;;;7.50;;
9914;SDS011;4996;48.746;9.174;2022-11-14T05:48:54;12.67;;;7.77;;
9914;SDS011;4996;48.746;9.174;2022-11-14T05:51:19;12.33;;;7.83;;
9914;SDS011;4996;48.746;9.174;2022-11-14T05:53:45;12.00;;;7.33;;
9914;SDS011;4996;48.746;9.174;2022-11-14T05:56:11;9.87;;;7.23;;
9914;SDS011;4996;48.746;9.174;2022-11-14T05:58:37;13.55;;;7.15;;
9914;SDS011;4996;48.746;9.174;2022-11-14T06:01:10;8.55;;;5.57;;
9914;SDS011;4996;48.746;9.174;2022-11-14T06:03:38;10.13;;;6.43;;
9914;SDS011;4996;48.746;9.174;2022-11-14T06:06:06;13.60;;;8.05;;
9914;SDS011;4996;48.746;9.174;2022-11-14T06:08:33;11.35;;;5.93;;
9914;SDS011;4996;48.746;9.174;2022-11-14T06:11:18;10.95;;;7.30;;
9914;SDS011;4996;48.746;9.174;2022-11-14T06:13:45;8.32;;;6.25;;
9914;SDS011;4996;48.746;9.174;2022-11-14T06:16:12;14.70;;;6.97;;
9914;SDS011;4996;48.746;9.174;2022-11-14T06:18:39;10.95;;;6.90;;
9914;SDS011;4996;48.746;9.174;2022-11-14T06:21:10;13.00;;;8.55;;
9914;SDS011;4996;48.746;9.174;2022-11-14T06:23:40;12.88;;;8.02;;
9914;SDS011;4996;48.746;9.174;2022-11-14T06:26:11;14.38;;;7.60;;
9914;SDS011;4996;48.746;9.174;2022-11-14T06:28:48;12.70;;;7.05;;
9914;SDS011;4996;48.746;9.174;2022-11-14T06:31:15;11.43;;;7.05;;
9914;SDS011;4996;48.746;9.174;2022-11-14T06:33:41;12.27;;;7.78;;
9914;SDS011;4996;48.746;9.174;2022-11-14T06:36:07;11.37;;;6.83;;
9914;SDS011;4996;48.746;9.174;2022-11-14T06:38:33;10.47;;;6.83;;
9914;SDS011;4996;48.746;9.174;2022-11-14T06:41:01;13.82;;;6.97;;
9914;SDS011;4996;48.746;9.174;2022-11-14T06:43:27;11.55;;;7.05;;
9914;SDS011;4996;48.746;9.174;2022-11-14T06:45:53;13.30;;;8.23;;
9914;SDS011;4996;48.746;9.174;2022-11-14T06:48:19;11.88;;;6.35;;
9914;SDS011;4996;48.746;9.174;2022-11-14T06:50:50;9.97;;;6.53;;
9914;SDS011;4996;48.746;9.174;2022-11-14T06:53:17;11.13;;;6.75;;
9914;SDS011;4996;48.746;9.174;2022-11-14T06:55:51;10.67;;;7.40;;
9914;SDS011;4996;48.746;9.174;2022-11-14T06:58:24;9.13;;;6.00;;
9914;SDS011;4996;48.746;9.174;2022-11-14T07:00:53;11.48;;;7.20;;
9914;SDS011;4996;48.746;9.174;2022-11-14T07:03:19;8.70;;;6.23;;
9914;SDS011;4996;48.746;9.174;2022-11-14T07:05:45;8.23;;;5.70;;
9914;SDS011;4996;48.746;9.174;2022-11-14T07:08:10;8.23;;;6.40;;
9914;SDS011;4996;48.746;9.174;2022-11-14T07:10:36;10.90;;;6.20;;
9914;SDS011;4996;48.746;9.174;2022-11-14T07:13:01;9.83;;;6.77;;
9914;SDS011;4996;48.746;9.174;2022-11-14T07:15:27;7.60;;;5.77;;
9914;SDS011;4996;48.746;9.174;2022-11-14T07:17:52;9.23;;;5.90;;
9914;SDS011;4996;48.746;9.174;2022-11-14T07:20:18;7.60;;;5.50;;
9914;SDS011;4996;48.746;9.174;2022-11-14T07:22:44;9.57;;;5.70;;
9914;SDS011;4996;48.746;9.174;2022-11-14T07:25:11;8.32;;;5.40;;
9914;SDS011;4996;48.746;9.174;2022-11-14T07:27:36;8.80;;;5.50;;
9914;SDS011;4996;48.746;9.174;2022-11-14T07:30:02;7.93;;;5.83;;
9914;SDS011;4996;48.746;9.174;2022-11-14T07:32:28;8.53;;;5.50;;
9914;SDS011;4996;48.746;9.174;2022-11-14T07:34:53;11.17;;;6.83;;
9914;SDS011;4996;48.746;9.174;2022-11-14T07:37:19;10.90;;;6.33;;
9914;SDS011;4996;48.746;9.174;2022-11-14T07:39:44;11.50;;;6.50;;
9914;SDS011;4996;48.746;9.174;2022-11-14T07:42:10;9.73;;;6.30;;
9914;SDS011;4996;48.746;9.174;2022-11-14T07:44:36;8.43;;;5.80;;
9914;SDS011;4996;48.746;9.174;2022-11-14T07:47:01;12.53;;;6.97;;
9914;SDS011;4996;48.746;9.174;2022-11-14T07:49:27;10.57;;;6.40;;
9914;SDS011;4996;48.746;9.174;2022-11-14T07:51:52;10.60;;;7.07;;
9914;SDS011;4996;48.746;9.174;2022-11-14T07:54:18;11.37;;;6.40;;
9914;SDS011;4996;48.746;9.174;2022-11-14T07:56:43;12.33;;;7.83;;
9914;SDS011;4996;48.746;9.174;2022-11-14T07:59:09;12.40;;;7.63;;
9914;SDS011;4996;48.746;9.174;2022-11-14T08:01:34;10.57;;;6.73;;
9914;SDS011;4996;48.746;9.174;2022-11-14T08:04:00;12.50;;;6.50;;
9914;SDS011;4996;48.746;9.174;2022-11-14T08:06:26;12.00;;;7.07;;
9914;SDS011;4996;48.746;9.174;2022-11-14T08:08:51;8.97;;;6.50;;
9914;SDS011;4996;48.746;9.174;2022-11-14T08:11:17;9.50;;;5.60;;
9914;SDS011;4996;48.746;9.174;2022-11-14T08:14:02;10.57;;;6.50;;
9914;SDS011;4996;48.746;9.174;2022-11-14T08:16:28;8.23;;;6.70;;
9914;SDS011;4996;48.746;9.174;2022-11-14T08:18:53;9.40;;;6.40;;
9914;SDS011;4996;48.746;9.174;2022-11-14T08:21:19;9.60;;;6.47;;
9914;SDS011;4996;48.746;9.174;2022-11-14T08:23:44;8.30;;;6.30;;
9914;SDS011;4996;48.746;9.174;2022-11-14T08:26:10;13.53;;;7.03;;
9914;SDS011;4996;48.746;9.174;2022-11-14T08:28:36;8.93;;;5.47;;
9914;SDS011;4996;48.746;9.174;2022-11-14T08:31:02;10.00;;;5.70;;
9914;SDS011;4996;48.746;9.174;2022-11-14T08:33:28;8.23;;;5.10;;
9914;SDS011;4996;48.746;9.174;2022-11-14T08:35:54;7.17;;;5.27;;
9914;SDS011;4996;48.746;9.174;2022-11-14T08:38:20;10.47;;;6.47;;
9914;SDS011;4996;48.746;9.174;2022-11-14T08:40:45;4.60;;;3.40;;
9914;SDS011;4996;48.746;9.174;2022-11-14T08:43:11;6.90;;;4.80;;
9914;SDS011;4996;48.746;9.174;2022-11-14T08:45:36;5.40;;;3.90;;
9914;SDS011;4996;48.746;9.174;2022-11-14T08:48:02;8.17;;;3.83;;
9914;SDS011;4996;48.746;9.174;2022-11-14T08:50:27;4.60;;;3.50;;
9914;SDS011;4996;48.746;9.174;2022-11-14T08:52:53;5.97;;;3.37;;
9914;SDS011;4996;48.746;9.174;2022-11-14T08:55:19;4.67;;;3.40;;
9914;SDS011;4996;48.746;9.174;2022-11-14T08:57:45;8.30;;;3.97;;
9914;SDS011;4996;48.746;9.174;2022-11-14T09:00:11;5.43;;;3.57;;
9914;SDS011;4996;48.746;9.174;2022-11-14T09:02:37;5.40;;;3.20;;
9914;SDS011;4996;48.746;9.174;2022-11-14T09:05:03;5.90;;;3.30;;
9914;SDS011;4996;48.746;9.174;2022-11-14T09:07:29;6.27;;;3.00;;
9914;SDS011;4996;48.746;9.174;2022-11-14T09:09:54;5.97;;;3.20;;
9914;SDS011;4996;48.746;9.174;2022-11-14T09:12:20;3.90;;;2.67;;
9914;SDS011;4996;48.746;9.174;2022-11-14T09:14:45;2.93;;;2.33;;
9914;SDS011;4996;48.746;9.174;2022-11-14T09:17:11;4.30;;;2.20;;
9914;SDS011;4996;48.746;9.174;2022-11-14T09:19:36;2.73;;;2.43;;
9914;SDS011;4996;48.746;9.174;2022-11-14T09:22:02;3.90;;;2.70;;
9914;SDS011;4996;48.746;9.174;2022-11-14T09:24:27;4.90;;;2.70;;
9914;SDS011;4996;48.746;9.174;2022-11-14T09:26:53;3.47;;;2.77;;
9914;SDS011;4996;48.746;9.174;2022-11-14T09:29:18;5.10;;;2.33;;
9914;SDS011;4996;48.746;9.174;2022-11-14T09:31:44;3.80;;;2.90;;
9914;SDS011;4996;48.746;9.174;2022-11-14T09:34:10;6.43;;;2.77;;
9914;SDS011;4996;48.746;9.174;2022-11-14T09:36:35;5.03;;;3.50;;
9914;SDS011;4996;48.746;9.174;2022-11-14T09:39:01;4.00;;;2.63;;
9914;SDS011;4996;48.746;9.174;2022-11-14T09:47:09;4.27;;;2.40;;
9914;SDS011;4996;48.746;9.174;2022-11-14T09:49:42;4.40;;;2.50;;
9914;SDS011;4996;48.746;9.174;2022-11-14T09:54:45;4.07;;;2.60;;
9914;SDS011;4996;48.746;9.174;2022-11-14T09:57:17;4.20;;;2.50;;
9914;SDS011;4996;48.746;9.174;2022-11-14T09:59:44;4.13;;;2.53;;
9914;SDS011;4996;48.746;9.174;2022-11-14T10:11:07;4.13;;;3.10;;
9914;SDS011;4996;48.746;9.174;2022-11-14T10:16:20;2.73;;;2.27;;
9914;SDS011;4996;48.746;9.174;2022-11-14T10:21:38;4.67;;;3.17;;
9914;SDS011;4996;48.746;9.174;2022-11-14T10:27:01;5.67;;;4.43;;
9914;SDS011;4996;48.746;9.174;2022-11-14T10:40:25;4.37;;;3.50;;
9914;SDS011;4996;48.746;9.174;2022-11-14T10:48:30;7.37;;;4.30;;
9914;SDS011;4996;48.746;9.174;2022-11-14T10:51:01;4.70;;;3.87;;
9914;SDS011;4996;48.746;9.174;2022-11-14T10:56:11;6.10;;;3.57;;
9914;SDS011;4996;48.746;9.174;2022-11-14T10:58:38;4.80;;;3.80;;
9914;SDS011;4996;48.746;9.174;2022-11-14T11:04:16;6.33;;;3.50;;
9914;SDS011;4996;48.746;9.174;2022-11-14T11:06:44;5.50;;;3.80;;
9914;SDS011;4996;48.746;9.174;2022-11-14T11:09:14;5.43;;;4.20;;
9914;SDS011;4996;48.746;9.174;2022-11-14T11:12:02;5.77;;;3.70;;
9914;SDS011;4996;48.746;9.174;2022-11-14T11:14:29;6.17;;;4.17;;
9914;SDS011;4996;48.746;9.174;2022-11-14T11:19:36;4.83;;;3.60;;
9914;SDS011;4996;48.746;9.174;2022-11-14T11:22:22;7.60;;;2.97;;
9914;SDS011;4996;48.746;9.174;2022-11-14T11:24:49;4.27;;;3.40;;
9914;SDS011;4996;48.746;9.174;2022-11-14T11:30:08;2.77;;;2.40;;
9914;SDS011;4996;48.746;9.174;2022-11-14T11:32:44;3.17;;;2.10;;
9914;SDS011;4996;48.746;9.174;2022-11-14T11:35:11;3.20;;;1.77;;
9914;SDS011;4996;48.746;9.174;2022-11-14T11:40:09;2.80;;;1.70;;
9914;SDS011;4996;48.746;9.174;2022-11-14T11:45:20;3.57;;;2.00;;
9914;SDS011;4996;48.746;9.174;2022-11-14T11:47:51;2.30;;;1.70;;
9914;SDS011;4996;48.746;9.174;2022-11-14T11:50:24;2.47;;;1.10;;
9914;SDS011;4996;48.746;9.174;2022-11-14T11:55:57;2.50;;;1.70;;
9914;SDS011;4996;48.746;9.174;2022-11-14T11:58:29;3.50;;;2.07;;
9914;SDS011;4996;48.746;9.174;2022-11-14T12:01:01;2.70;;;1.30;;
9914;SDS011;4996;48.746;9.174;2022-11-14T12:03:27;2.07;;;1.10;;
9914;SDS011;4996;48.746;9.174;2022-11-14T12:08:36;1.87;;;1.30;;
9914;SDS011;4996;48.746;9.174;2022-11-14T12:11:29;1.83;;;1.40;;
9914;SDS011;4996;48.746;9.174;2022-11-14T12:30:32;2.30;;;1.17;;
9914;SDS011;4996;48.746;9.174;2022-11-14T12:35:30;1.60;;;1.30;;
9914;SDS011;4996;48.746;9.174;2022-11-14T12:37:58;1.47;;;1.37;;
9914;SDS011;4996;48.746;9.174;2022-11-14T12:42:55;2.30;;;1.60;;
9914;SDS011;4996;48.746;9.174;2022-11-14T12:48:13;5.00;;;1.50;;
9914;SDS011;4996;48.746;9.174;2022-11-14T12:50:52;1.67;;;1.43;;
9914;SDS011;4996;48.746;9.174;2022-11-14T13:06:32;2.20;;;1.43;;
9914;SDS011;4996;48.746;9.174;2022-11-14T13:09:25;5.37;;;1.77;;
9914;SDS011;4996;48.746;9.174;2022-11-14T13:15:24;1.50;;;1.37;;
9914;SDS011;4996;48.746;9.174;2022-11-14T13:18:14;2.53;;;1.77;;
9914;SDS011;4996;48.746;9.174;2022-11-14T13:21:05;3.03;;;2.10;;
9914;SDS011;4996;48.746;9.174;2022-11-14T13:24:04;1.83;;;1.40;;
9914;SDS011;4996;48.746;9.174;2022-11-14T13:28:55;2.30;;;1.67;;
9914;SDS011;4996;48.746;9.174;2022-11-14T13:31:23;6.33;;;1.60;;
9914;SDS011;4996;48.746;9.174;2022-11-14T13:36:56;4.50;;;1.70;;
9914;SDS011;4996;48.746;9.174;2022-11-14T13:42:23;2.70;;;1.60;;
9914;SDS011;4996;48.746;9.174;2022-11-14T13:45:07;2.00;;;1.37;;
9914;SDS011;4996;48.746;9.174;2022-11-14T13:50:29;3.07;;;1.67;;
9914;SDS011;4996;48.746;9.174;2022-11-14T13:52:59;1.20;;;1.10;;
9914;SDS011;4996;48.746;9.174;2022-11-14T13:59:09;2.23;;;1.50;;
9914;SDS011;4996;48.746;9.174;2022-11-14T14:12:18;2.23;;;1.70;;
9914;SDS011;4996;48.746;9.174;2022-11-14T14:15:00;1.87;;;1.40;;
9914;SDS011;4996;48.746;9.174;2022-11-14T14:17:42;2.60;;;1.53;;
9914;SDS011;4996;48.746;9.174;2022-11-14T14:26:15;2.70;;;1.40;;
9914;SDS011;4996;48.746;9.174;2022-11-14T14:31:48;3.50;;;2.17;;
9914;SDS011;4996;48.746;9.174;2022-11-14T14:34:27;2.90;;;2.00;;
9914;SDS011;4996;48.746;9.174;2022-11-14T14:36:54;2.60;;;1.83;;
9914;SDS011;4996;48.746;9.174;2022-11-14T14:39:25;2.33;;;1.70;;
9914;SDS011;4996;48.746;9.174;2022-11-14T14:41:54;2.27;;;1.60;;
9914;SDS011;4996;48.746;9.174;2022-11-14T14:44:23;9.23;;;2.20;;
9914;SDS011;4996;48.746;9.174;2022-11-14T14:46:55;2.70;;;1.60;;
9914;SDS011;4996;48.746;9.174;2022-11-14T14:49:34;4.10;;;1.83;;
9914;SDS011;4996;48.746;9.174;2022-11-14T14:52:01;2.63;;;1.50;;
9914;SDS011;4996;48.746;9.174;2022-11-14T14:54:55;2.73;;;1.53;;
9914;SDS011;4996;48.746;9.174;2022-11-14T14:57:22;3.10;;;1.80;;
9914;SDS011;4996;48.746;9.174;2022-11-14T14:59:57;3.80;;;2.00;;
9914;SDS011;4996;48.746;9.174;2022-11-14T15:02:24;3.93;;;1.87;;
9914;SDS011;4996;48.746;9.174;2022-11-14T15:04:50;6.30;;;1.40;;
9914;SDS011;4996;48.746;9.174;2022-11-14T15:07:19;3.10;;;1.93;;
9914;SDS011;4996;48.746;9.174;2022-11-14T15:09:54;1.83;;;1.60;;
9914;SDS011;4996;48.746;9.174;2022-11-14T15:12:24;2.53;;;1.57;;
9914;SDS011;4996;48.746;9.174;2022-11-14T15:14:52;3.57;;;1.80;;
9914;SDS011;4996;48.746;9.174;2022-11-14T15:17:18;3.13;;;1.83;;
9914;SDS011;4996;48.746;9.174;2022-11-14T15:19:45;6.80;;;2.43;;
9914;SDS011;4996;48.746;9.174;2022-11-14T15:24:38;3.73;;;1.50;;
9914;SDS011;4996;48.746;9.174;2022-11-14T15:27:05;6.17;;;3.60;;
9914;SDS011;4996;48.746;9.174;2022-11-14T15:29:52;5.50;;;2.10;;
9914;SDS011;4996;48.746;9.174;2022-11-14T15:32:22;3.80;;;2.97;;
9914;SDS011;4996;48.746;9.174;2022-11-14T15:37:34;2.73;;;2.40;;
9914;SDS011;4996;48.746;9.174;2022-11-14T15:42:56;3.07;;;2.17;;
9914;SDS011;4996;48.746;9.174;2022-11-14T15:45:27;4.67;;;2.60;;
9914;SDS011;4996;48.746;9.174;2022-11-14T15:48:05;5.10;;;2.93;;
9914;SDS011;4996;48.746;9.174;2022-11-14T15:50:38;3.23;;;2.40;;
9914;SDS011;4996;48.746;9.174;2022-11-14T15:53:05;5.30;;;3.03;;
9914;SDS011;4996;48.746;9.174;2022-11-14T15:55:41;4.73;;;2.70;;
9914;SDS011;4996;48.746;9.174;2022-11-14T15:58:07;8.70;;;3.00;;
9914;SDS011;4996;48.746;9.174;2022-11-14T16:00:34;4.13;;;2.53;;
9914;SDS011;4996;48.746;9.174;2022-11-14T16:03:00;6.43;;;2.73;;
9914;SDS011;4996;48.746;9.174;2022-11-14T16:05:27;3.40;;;2.93;;
9914;SDS011;4996;48.746;9.174;2022-11-14T16:07:54;3.40;;;2.37;;
9914;SDS011;4996;48.746;9.174;2022-11-14T16:10:21;8.77;;;2.53;;
9914;SDS011;4996;48.746;9.174;2022-11-14T16:12:48;7.27;;;3.20;;
9914;SDS011;4996;48.746;9.174;2022-11-14T16:15:14;3.10;;;2.20;;
9914;SDS011;4996;48.746;9.174;2022-11-14T16:17:41;4.27;;;2.70;;
9914;SDS011;4996;48.746;9.174;2022-11-14T16:20:27;3.20;;;2.33;;
9914;SDS011;4996;48.746;9.174;2022-11-14T16:22:54;3.63;;;2.70;;
9914;SDS011;4996;48.746;9.174;2022-11-14T16:25:24;3.60;;;2.30;;
9914;SDS011;4996;48.746;9.174;2022-11-14T16:27:51;4.87;;;2.20;;
9914;SDS011;4996;48.746;9.174;2022-11-14T16:30:17;7.63;;;3.40;;
9914;SDS011;4996;48.746;9.174;2022-11-14T16:32:44;6.07;;;2.83;;
9914;SDS011;4996;48.746;9.174;2022-11-14T16:35:21;6.23;;;3.33;;
9914;SDS011;4996;48.746;9.174;2022-11-14T16:37:49;8.87;;;3.40;;
9914;SDS011;4996;48.746;9.174;2022-11-14T16:40:18;4.10;;;2.70;;
9914;SDS011;4996;48.746;9.174;2022-11-14T16:42:46;3.10;;;2.80;;
9914;SDS011;4996;48.746;9.174;2022-11-14T16:45:17;6.83;;;2.67;;
9914;SDS011;4996;48.746;9.174;2022-11-14T16:47:46;4.77;;;2.53;;
9914;SDS011;4996;48.746;9.174;2022-11-14T16:50:12;3.80;;;2.20;;
9914;SDS011;4996;48.746;9.174;2022-11-14T16:52:38;3.63;;;2.93;;
9914;SDS011;4996;48.746;9.174;2022-11-14T16:55:04;6.80;;;3.13;;
9914;SDS011;4996;48.746;9.174;2022-11-14T16:57:30;3.70;;;2.60;;
9914;SDS011;4996;48.746;9.174;2022-11-14T16:59:56;5.40;;;3.10;;
9914;SDS011;4996;48.746;9.174;2022-11-14T17:02:22;4.93;;;3.10;;
9914;SDS011;4996;48.746;9.174;2022-11-14T17:04:48;4.20;;;2.40;;
9914;SDS011;4996;48.746;9.174;2022-11-14T17:07:14;4.83;;;2.43;;
9914;SDS011;4996;48.746;9.174;2022-11-14T17:09:40;4.63;;;3.50;;
9914;SDS011;4996;48.746;9.174;2022-11-14T17:12:05;4.77;;;3.23;;
9914;SDS011;4996;48.746;9.174;2022-11-14T17:14:31;4.73;;;3.37;;
9914;SDS011;4996;48.746;9.174;2022-11-14T17:16:57;10.57;;;4.03;;
9914;SDS011;4996;48.746;9.174;2022-11-14T17:19:23;5.00;;;3.80;;
9914;SDS011;4996;48.746;9.174;2022-11-14T17:21:48;6.83;;;3.80;;
9914;SDS011;4996;48.746;9.174;2022-11-14T17:24:14;6.33;;;4.00;;
9914;SDS011;4996;48.746;9.174;2022-11-14T17:26:40;8.60;;;4.87;;
9914;SDS011;4996;48.746;9.174;2022-11-14T17:29:06;7.93;;;4.87;;
9914;SDS011;4996;48.746;9.174;2022-11-14T17:31:32;6.27;;;4.07;;
9914;SDS011;4996;48.746;9.174;2022-11-14T17:33:58;9.40;;;4.90;;
9914;SDS011;4996;48.746;9.174;2022-11-14T17:36:25;10.77;;;5.93;;
9914;SDS011;4996;48.746;9.174;2022-11-14T17:38:52;13.80;;;5.73;;
9914;SDS011;4996;48.746;9.174;2022-11-14T17:41:19;7.87;;;5.60;;
9914;SDS011;4996;48.746;9.174;2022-11-14T17:43:44;12.00;;;4.50;;
9914;SDS011;4996;48.746;9.174;2022-11-14T17:46:10;6.80;;;4.13;;
9914;SDS011;4996;48.746;9.174;2022-11-14T17:48:37;6.57;;;4.50;;